createdAt,value
2023-05-24T04:31:33.161Z,55.4518
2023-05-24T04:32:35.000Z,54.0663
2023-05-24T04:33:37.036Z,53.0966
2023-05-24T04:34:39.164Z,52.3631
2023-05-24T04:35:41.114Z,51.8212
2023-05-24T04:36:43.148Z,51.4023
2023-05-24T04:37:45.217Z,50.9956
2023-05-24T04:38:47.278Z,51.0540
2023-05-24T04:39:49.379Z,50.9036
2023-05-24T04:40:51.345Z,51.5872
2023-05-24T04:41:53.407Z,50.8560
2023-05-24T04:42:55.420Z,50.6363
2023-05-24T04:43:57.449Z,50.5309
2023-05-24T04:44:59.514Z,49.8758
2023-05-24T04:46:01.559Z,49.7392
2023-05-24T04:47:03.687Z,49.6127
2023-05-24T04:48:05.696Z,49.3367
2023-05-24T04:49:07.673Z,49.2841
2023-05-24T04:50:09.761Z,49.1542
2023-05-24T04:51:11.781Z,49.0709
2023-05-24T04:52:13.838Z,48.9906
2023-05-24T04:53:15.871Z,48.8491
2023-05-24T04:54:17.914Z,48.7581
2023-05-24T04:55:19.949Z,48.7307
2023-05-24T04:56:21.989Z,48.7573
2023-05-24T04:57:24.035Z,48.6659
2023-05-24T04:58:26.087Z,48.5737
2023-05-24T04:59:28.111Z,48.6296
2023-05-24T05:00:30.174Z,48.8503
2023-05-24T05:01:32.222Z,48.7626
2023-05-24T05:02:34.301Z,48.7012
2023-05-24T05:03:36.412Z,48.6733
2023-05-24T05:04:38.326Z,48.5147
2023-05-24T05:05:40.376Z,48.5589
2023-05-24T05:06:42.442Z,48.5742
2023-05-24T05:07:44.496Z,48.6504
2023-05-24T05:08:46.519Z,48.7760
2023-05-24T05:09:48.588Z,48.7163
2023-05-24T05:10:50.633Z,48.7007
2023-05-24T05:11:52.672Z,48.6833
2023-05-24T05:12:54.706Z,48.6787
2023-05-24T05:13:56.798Z,48.7973
2023-05-24T05:14:58.796Z,51.1071
2023-05-24T05:16:00.882Z,51.0888
2023-05-24T05:17:02.912Z,51.1673
2023-05-24T05:18:04.991Z,51.0294
2023-05-24T05:19:07.007Z,50.8863
2023-05-24T05:20:09.133Z,51.2917
2023-05-24T05:21:11.070Z,50.4295
2023-05-24T05:22:13.114Z,50.1842
2023-05-24T05:23:15.287Z,49.9971
2023-05-24T05:24:17.243Z,50.0410
2023-05-24T05:25:19.277Z,49.8650
2023-05-24T05:26:21.313Z,49.8305
2023-05-24T05:27:23.355Z,49.8045
2023-05-24T05:28:25.398Z,49.8425
2023-05-24T05:29:27.424Z,49.8498
2023-05-24T05:30:29.513Z,49.8117
2023-05-24T05:31:31.538Z,49.7441
2023-05-24T05:32:33.633Z,49.9433
2023-05-24T05:33:35.643Z,50.0052
2023-05-24T05:34:37.671Z,49.9796
2023-05-24T05:35:39.718Z,49.8974
2023-05-24T05:36:41.754Z,50.1178
2023-05-24T05:37:43.852Z,50.1171
2023-05-24T05:38:45.830Z,50.0234
2023-05-24T05:39:47.913Z,49.8249
2023-05-24T05:40:49.949Z,49.6918
2023-05-24T05:41:51.987Z,49.6900
2023-05-24T05:42:54.025Z,49.7127
2023-05-24T05:43:56.347Z,49.7702
2023-05-24T05:44:58.166Z,49.8968
2023-05-24T05:46:00.230Z,49.6468
2023-05-24T05:47:02.254Z,49.5252
2023-05-24T05:48:04.334Z,49.4492
2023-05-24T05:49:06.398Z,49.5540
2023-05-24T05:50:08.406Z,49.3520
2023-05-24T05:51:10.450Z,49.2955
2023-05-24T05:52:12.482Z,49.4715
2023-05-24T05:53:14.523Z,49.3604
2023-05-24T05:54:16.601Z,49.5672
2023-05-24T05:55:18.594Z,49.8082
2023-05-24T05:56:20.647Z,49.8939
2023-05-24T05:57:22.753Z,50.3532
2023-05-24T05:58:24.757Z,49.7260
2023-05-24T05:59:26.804Z,49.9288
2023-05-24T06:00:28.957Z,49.4115
2023-05-24T06:01:30.866Z,49.8007
2023-05-24T06:02:32.970Z,49.8557
2023-05-24T06:03:35.200Z,50.1256
2023-05-24T06:04:37.059Z,50.0039
2023-05-24T06:05:39.063Z,50.0144
2023-05-24T06:06:41.154Z,49.5764
2023-05-24T06:07:43.165Z,49.7107
2023-05-24T06:08:45.282Z,50.1255
2023-05-24T06:09:47.310Z,50.3323
2023-05-24T06:10:52.039Z,50.9529
2023-05-24T06:11:51.389Z,51.4620
2023-05-24T06:12:53.473Z,51.6606
2023-05-24T06:13:55.457Z,51.5678
2023-05-24T06:14:57.561Z,51.1652
2023-05-24T06:15:59.566Z,51.7343
2023-05-24T06:17:01.690Z,51.4050
2023-05-24T06:18:03.819Z,51.6883
2023-05-24T06:19:06.603Z,51.7203
2023-05-24T06:20:07.764Z,51.5724
2023-05-24T06:21:09.807Z,51.4515
2023-05-24T06:22:11.807Z,51.9294
2023-05-24T06:23:14.016Z,52.2784
2023-05-24T06:24:15.901Z,52.1909
2023-05-24T06:25:18.008Z,52.1724
2023-05-24T06:26:20.002Z,52.6561
2023-05-24T06:27:22.151Z,52.7243
2023-05-24T06:28:24.080Z,52.6057
2023-05-24T06:29:26.154Z,52.6445
2023-05-24T06:30:28.385Z,52.6459
2023-05-24T06:31:30.221Z,52.3722
2023-05-24T06:32:32.380Z,52.2758
2023-05-24T06:33:35.766Z,52.1346
2023-05-24T06:34:36.371Z,51.8500
2023-05-24T06:35:38.413Z,52.1464
2023-05-24T06:36:40.465Z,52.1805
2023-05-24T06:37:42.497Z,51.7120
2023-05-24T06:38:44.514Z,51.7061
2023-05-24T06:39:46.626Z,51.8038
2023-05-24T06:40:48.605Z,51.6659
2023-05-24T06:41:50.659Z,52.1501
2023-05-24T06:42:52.736Z,52.3087
2023-05-24T06:43:54.772Z,52.1231
2023-05-24T06:44:56.841Z,52.2716
2023-05-24T06:45:58.884Z,52.6497
2023-05-24T06:47:01.007Z,51.8789
2023-05-24T06:48:05.024Z,51.5744
2023-05-24T06:49:05.054Z,51.9217
2023-05-24T06:50:07.033Z,51.9920
2023-05-24T06:51:09.091Z,51.7766
2023-05-24T06:52:11.130Z,51.7537
2023-05-24T06:53:13.236Z,51.9603
2023-05-24T06:54:15.243Z,51.4445
2023-05-24T06:55:17.254Z,51.4293
2023-05-24T06:56:19.322Z,51.7616
2023-05-24T06:57:21.355Z,52.1692
2023-05-24T06:58:23.392Z,51.9536
2023-05-24T06:59:25.473Z,52.1507
2023-05-24T07:00:27.583Z,52.1791
2023-05-24T07:01:29.671Z,51.8388
2023-05-24T07:02:31.622Z,51.6876
2023-05-24T07:03:33.642Z,51.8225
2023-05-24T07:04:37.532Z,52.0980
2023-05-24T07:05:37.719Z,52.1761
2023-05-24T07:06:39.829Z,51.8590
2023-05-24T07:07:41.817Z,51.9807
2023-05-24T07:08:43.833Z,52.5034
2023-05-24T07:09:45.896Z,52.5290
2023-05-24T07:10:48.119Z,52.9662
2023-05-24T07:11:50.020Z,53.3882
2023-05-24T07:12:52.016Z,53.1615
2023-05-24T07:13:54.076Z,53.3971
2023-05-24T07:14:56.120Z,53.3727
2023-05-24T07:15:58.158Z,52.6581
2023-05-24T07:17:00.340Z,52.6082
2023-05-24T07:18:02.342Z,52.4544
2023-05-24T07:19:04.949Z,52.3773
2023-05-24T07:20:06.359Z,52.1287
2023-05-24T07:21:08.404Z,52.3752
2023-05-24T07:22:10.496Z,52.2420
2023-05-24T07:23:12.552Z,52.0747
2023-05-24T07:24:16.229Z,51.8237
2023-05-24T07:25:16.581Z,51.6685
2023-05-24T07:26:18.644Z,51.5875
2023-05-24T07:27:20.650Z,51.5929
2023-05-24T07:28:22.741Z,51.6909
2023-05-24T07:29:24.981Z,51.9488
2023-05-24T07:30:32.301Z,51.7404
2023-05-24T07:31:28.870Z,51.9098
2023-05-24T07:32:30.990Z,51.5665
2023-05-24T07:33:33.040Z,51.6622
2023-05-24T07:34:35.027Z,52.1421
2023-05-24T07:35:37.087Z,52.0464
2023-05-24T07:36:39.301Z,51.8152
2023-05-24T07:37:41.228Z,51.5299
2023-05-24T07:38:43.328Z,51.7321
2023-05-24T07:39:45.224Z,51.8937
2023-05-24T07:40:47.340Z,51.8802
2023-05-24T07:41:49.330Z,51.7995
2023-05-24T07:42:51.416Z,51.9941
2023-05-24T07:43:53.478Z,51.9011
2023-05-24T07:44:55.549Z,51.8739
2023-05-24T07:45:57.522Z,52.2144
2023-05-24T07:46:59.731Z,52.0393
2023-05-24T07:48:01.861Z,51.8806
2023-05-24T07:49:03.673Z,51.5746
2023-05-24T07:50:06.065Z,51.3894
2023-05-24T07:51:08.059Z,50.9082
2023-05-24T07:52:09.784Z,50.6413
2023-05-24T07:53:11.853Z,50.6604
2023-05-24T07:54:13.894Z,50.9534
2023-05-24T07:55:15.940Z,50.8040
2023-05-24T07:56:17.953Z,50.9709
2023-05-24T07:57:20.035Z,51.1740
2023-05-24T07:58:22.093Z,51.1227
2023-05-24T07:59:24.106Z,50.7557
2023-05-24T08:00:26.259Z,50.8061
2023-05-24T08:01:28.213Z,51.1730
2023-05-24T08:02:30.439Z,51.2760
2023-05-24T08:03:32.379Z,51.1484
2023-05-24T08:04:34.367Z,51.6842
2023-05-24T08:05:36.562Z,51.9792
2023-05-24T08:06:38.496Z,52.0754
2023-05-24T08:07:40.469Z,52.0288
2023-05-24T08:08:42.555Z,51.8608
2023-05-24T08:09:44.651Z,52.0917
2023-05-24T08:10:46.604Z,52.1212
2023-05-24T08:11:48.664Z,51.9084
2023-05-24T08:12:50.667Z,51.8629
2023-05-24T08:13:52.721Z,51.8794
2023-05-24T08:14:55.272Z,52.0518
2023-05-24T08:15:56.879Z,51.8901
2023-05-24T08:16:58.887Z,51.7654
2023-05-24T08:18:00.973Z,51.8605
2023-05-24T08:19:03.017Z,52.2009
2023-05-24T08:20:05.084Z,52.1602
2023-05-24T08:21:07.035Z,52.1363
2023-05-24T08:22:09.239Z,52.1240
2023-05-24T08:23:11.351Z,51.9313
2023-05-24T08:24:13.186Z,51.7630
2023-05-24T08:25:16.974Z,51.3833
2023-05-24T08:26:17.486Z,50.9841
2023-05-24T08:27:19.314Z,50.7945
2023-05-24T08:28:21.484Z,50.7149
2023-05-24T08:29:23.423Z,50.2987
2023-05-24T08:30:25.734Z,50.0128
2023-05-24T08:31:27.564Z,49.9061
2023-05-24T08:32:29.587Z,49.7723
2023-05-24T08:33:31.630Z,49.6492
2023-05-24T08:34:33.747Z,49.5537
2023-05-24T08:35:35.776Z,49.3749
2023-05-24T08:36:37.831Z,49.9346
2023-05-24T08:37:39.955Z,50.1817
2023-05-24T08:38:41.927Z,49.7604
2023-05-24T08:39:44.120Z,50.0473
2023-05-24T08:40:46.076Z,49.6703
2023-05-24T08:42:01.026Z,49.6178
2023-05-24T08:42:50.151Z,49.6034
2023-05-24T08:43:52.185Z,49.7526
2023-05-24T08:44:54.205Z,49.7851
2023-05-24T08:45:56.282Z,49.6129
2023-05-24T08:46:58.369Z,49.9311
2023-05-24T08:48:00.463Z,49.6723
2023-05-24T08:49:02.548Z,49.6060
2023-05-24T08:50:04.499Z,49.4596
2023-05-24T08:51:06.630Z,49.4316
2023-05-24T08:52:08.642Z,49.4535
2023-05-24T08:53:10.573Z,50.0809
2023-05-24T08:54:12.662Z,50.4017
2023-05-24T08:55:14.680Z,50.1171
2023-05-24T08:56:16.780Z,50.1697
2023-05-24T08:57:18.756Z,50.2194
2023-05-24T08:58:20.838Z,50.7155
2023-05-24T08:59:22.856Z,50.4780
2023-05-24T09:00:24.931Z,50.4263
2023-05-24T09:01:28.953Z,50.2578
2023-05-24T09:02:29.007Z,50.7486
2023-05-24T09:03:31.148Z,50.8155
2023-05-24T09:04:33.109Z,50.5964
2023-05-24T09:05:35.168Z,50.3730
2023-05-24T09:06:37.191Z,50.3815
2023-05-24T09:07:39.259Z,50.0696
2023-05-24T09:08:43.628Z,50.0351
2023-05-24T09:09:43.323Z,49.6859
2023-05-24T09:10:54.554Z,49.3333
2023-05-24T09:11:47.423Z,49.3527
2023-05-24T09:12:49.470Z,50.2041
2023-05-24T09:13:51.488Z,50.2420
2023-05-24T09:14:53.621Z,49.6203
2023-05-24T09:15:55.661Z,50.0715
2023-05-24T09:16:57.665Z,49.8779
2023-05-24T09:17:59.702Z,49.8629
2023-05-24T09:19:01.747Z,49.7046
2023-05-24T09:20:03.856Z,49.3587
2023-05-24T09:21:05.866Z,49.2975
2023-05-24T09:22:08.202Z,48.7885
2023-05-24T09:23:10.032Z,48.8968
2023-05-24T09:24:11.995Z,48.8018
2023-05-24T09:25:14.083Z,48.5730
2023-05-24T09:26:16.120Z,48.7984
2023-05-24T09:27:18.122Z,49.1536
2023-05-24T09:28:20.167Z,48.5077
2023-05-24T09:29:22.359Z,48.2381
2023-05-24T09:30:24.279Z,48.3693
2023-05-24T09:31:26.344Z,47.8739
2023-05-24T09:32:28.437Z,47.7297
2023-05-24T09:33:30.393Z,48.1240
2023-05-24T09:34:32.407Z,48.5313
2023-05-24T09:35:34.645Z,48.8350
2023-05-24T09:36:36.545Z,48.9077
2023-05-24T09:37:38.757Z,48.6863
2023-05-24T09:38:40.691Z,48.3170
2023-05-24T09:39:42.701Z,48.1380
2023-05-24T09:40:44.727Z,48.3266
2023-05-24T09:41:46.910Z,48.3275
2023-05-24T09:42:49.834Z,48.7294
2023-05-24T09:43:50.896Z,48.5564
2023-05-24T09:44:53.184Z,48.3745
2023-05-24T09:45:54.960Z,48.4540
2023-05-24T09:46:57.027Z,48.6474
2023-05-24T09:47:59.137Z,48.6167
2023-05-24T09:49:01.081Z,48.3425
2023-05-24T09:50:03.165Z,48.1989
2023-05-24T09:51:05.196Z,48.3301
2023-05-24T09:52:07.305Z,48.2302
2023-05-24T09:53:09.289Z,48.2945
2023-05-24T09:54:11.296Z,48.3972
2023-05-24T09:55:13.366Z,48.5352
2023-05-24T09:56:15.430Z,48.0804
2023-05-24T09:57:17.427Z,48.1755
2023-05-24T09:58:19.484Z,48.0620
2023-05-24T09:59:21.553Z,48.0456
2023-05-24T10:00:23.658Z,48.0990
2023-05-24T10:01:25.688Z,48.5578
2023-05-24T10:02:31.369Z,48.4078
2023-05-24T10:03:29.864Z,48.7697
2023-05-24T10:04:31.861Z,48.9491
2023-05-24T10:05:33.938Z,48.9983
2023-05-24T10:06:35.871Z,49.0599
2023-05-24T10:07:37.903Z,48.9851
2023-05-24T10:08:40.046Z,48.6099
2023-05-24T10:09:42.022Z,48.7048
2023-05-24T10:10:44.456Z,49.1285
2023-05-24T10:11:46.275Z,49.1547
2023-05-24T10:12:48.322Z,49.4848
2023-05-24T10:13:50.214Z,49.4919
2023-05-24T10:14:52.330Z,49.6476
2023-05-24T10:15:54.407Z,49.2868
2023-05-24T10:16:56.389Z,49.1058
2023-05-24T10:17:58.583Z,49.0907
2023-05-24T10:19:00.447Z,48.9204
2023-05-24T10:20:02.556Z,48.2853
2023-05-24T10:21:04.762Z,48.1153
2023-05-24T10:22:06.592Z,48.0294
2023-05-24T10:23:08.628Z,48.2428
2023-05-24T10:24:10.733Z,47.9006
2023-05-24T10:25:12.835Z,47.5723
2023-05-24T10:26:14.833Z,47.4734
2023-05-24T10:27:16.967Z,47.5758
2023-05-24T10:28:18.923Z,47.7835
2023-05-24T10:29:20.938Z,47.8563
2023-05-24T10:30:23.005Z,47.9637
2023-05-24T10:31:25.127Z,48.7399
2023-05-24T10:32:27.203Z,47.8333
2023-05-24T10:33:29.166Z,47.5127
2023-05-24T10:34:31.232Z,47.9032
2023-05-24T10:35:33.246Z,47.5087
2023-05-24T10:36:35.308Z,47.3926
2023-05-24T10:37:38.010Z,47.3078
2023-05-24T10:38:39.434Z,48.0916
2023-05-24T10:39:41.475Z,47.5754
2023-05-24T10:40:43.503Z,47.7065
2023-05-24T10:41:45.608Z,47.9392
2023-05-24T10:42:47.685Z,47.8469
2023-05-24T10:44:07.301Z,47.7903
2023-05-24T10:44:51.743Z,47.6166
2023-05-24T10:45:53.838Z,47.3904
2023-05-24T10:46:55.876Z,47.5104
2023-05-24T10:47:57.907Z,46.5851
2023-05-24T10:48:59.931Z,46.0549
2023-05-24T10:50:02.008Z,45.9473
2023-05-24T10:51:04.210Z,46.3645
2023-05-24T10:52:06.062Z,46.4537
2023-05-24T10:53:08.119Z,46.7367
2023-05-24T10:54:10.191Z,46.1763
2023-05-24T10:55:12.241Z,47.2358
2023-05-24T10:56:14.290Z,46.0236
2023-05-24T10:57:16.350Z,46.6596
2023-05-24T10:58:18.372Z,47.1916
2023-05-24T10:59:20.416Z,47.1352
2023-05-24T11:00:33.683Z,46.3064
2023-05-24T11:01:24.593Z,47.2449
2023-05-24T11:02:26.650Z,45.9997
2023-05-24T11:03:28.923Z,45.6102
2023-05-24T11:04:30.700Z,46.2616
2023-05-24T11:05:32.751Z,46.8424
2023-05-24T11:06:34.811Z,47.1223
2023-05-24T11:07:36.854Z,46.4638
2023-05-24T11:08:38.921Z,46.7323
2023-05-24T11:09:40.944Z,46.0868
2023-05-24T11:10:43.380Z,45.8064
2023-05-24T11:11:45.023Z,45.7333
2023-05-24T11:12:47.125Z,47.7041
2023-05-24T11:13:49.153Z,46.6518
2023-05-24T11:14:51.231Z,46.2895
2023-05-24T11:15:53.281Z,46.2380
2023-05-24T11:16:55.385Z,45.9949
2023-05-24T11:17:57.522Z,45.9944
2023-05-24T11:18:59.408Z,46.1170
2023-05-24T11:20:01.511Z,45.7287
2023-05-24T11:21:04.097Z,45.6138
2023-05-24T11:22:05.561Z,45.5706
2023-05-24T11:23:07.593Z,45.4840
2023-05-24T11:24:09.768Z,45.4235
2023-05-24T11:25:11.692Z,45.3718
2023-05-24T11:26:13.775Z,45.6598
2023-05-24T11:27:15.810Z,45.7260
2023-05-24T11:28:17.900Z,45.8523
2023-05-24T11:29:19.911Z,45.9957
2023-05-24T11:30:21.935Z,46.1412
2023-05-24T11:31:24.035Z,46.0698
2023-05-24T11:32:26.151Z,45.9554
2023-05-24T11:33:28.097Z,45.9003
2023-05-24T11:34:30.116Z,46.0186
2023-05-24T11:35:32.197Z,46.0317
2023-05-24T11:36:34.235Z,46.1690
2023-05-24T11:37:46.135Z,46.0574
2023-05-24T11:38:38.318Z,46.1010
2023-05-24T11:39:40.399Z,46.3169
2023-05-24T11:40:42.675Z,46.2691
2023-05-24T11:41:44.513Z,46.5621
2023-05-24T11:42:46.548Z,46.6425
2023-05-24T11:43:48.603Z,46.5345
2023-05-24T11:44:51.017Z,46.3881
2023-05-24T11:45:52.802Z,46.5759
2023-05-24T11:46:54.781Z,46.4605
2023-05-24T11:47:56.854Z,46.6527
2023-05-24T11:48:58.804Z,46.8604
2023-05-24T11:50:00.847Z,46.8917
2023-05-24T11:51:02.895Z,47.1310
2023-05-24T11:52:04.966Z,47.6566
2023-05-24T11:53:07.027Z,47.4376
2023-05-24T11:54:09.052Z,47.1474
2023-05-24T11:55:11.115Z,47.3924
2023-05-24T11:56:13.136Z,46.9896
2023-05-24T11:57:15.164Z,46.9752
2023-05-24T11:58:17.253Z,46.7150
2023-05-24T11:59:19.279Z,47.1133
2023-05-24T12:00:21.526Z,47.0278
2023-05-24T12:01:23.584Z,47.0907
2023-05-24T12:02:25.443Z,47.0501
2023-05-24T12:03:27.618Z,47.1396
2023-05-24T12:04:29.742Z,46.9478
2023-05-24T12:05:31.558Z,46.8621
2023-05-24T12:06:33.597Z,47.2979
2023-05-24T12:07:35.690Z,47.7652
2023-05-24T12:08:37.678Z,47.6489
2023-05-24T12:09:39.758Z,47.1136
2023-05-24T12:10:41.991Z,47.1967
2023-05-24T12:11:43.870Z,47.1495
2023-05-24T12:12:46.335Z,46.9533
2023-05-24T12:13:47.917Z,46.8383
2023-05-24T12:14:49.932Z,47.0958
2023-05-24T12:15:54.897Z,47.0059
2023-05-24T12:16:54.043Z,46.7586
2023-05-24T12:17:56.719Z,47.0985
2023-05-24T12:19:05.348Z,47.4378
2023-05-24T12:20:00.315Z,46.7383
2023-05-24T12:21:02.237Z,47.0823
2023-05-24T12:22:04.284Z,46.9493
2023-05-24T12:23:06.317Z,46.2056
2023-05-24T12:24:08.418Z,46.1088
2023-05-24T12:25:10.465Z,46.1702
2023-05-24T12:26:12.448Z,46.4051
2023-05-24T12:27:14.529Z,46.3555
2023-05-24T12:28:16.554Z,46.3238
2023-05-24T12:29:18.805Z,46.4522
2023-05-24T12:30:20.642Z,46.6225
2023-05-24T12:31:22.697Z,46.7799
2023-05-24T12:32:24.791Z,46.5063
2023-05-24T12:33:26.781Z,46.6723
2023-05-24T12:34:28.847Z,46.7437
2023-05-24T12:35:30.884Z,46.7743
2023-05-24T12:36:32.941Z,46.8724
2023-05-24T12:37:34.950Z,46.9633
2023-05-24T12:38:37.009Z,47.0540
2023-05-24T12:39:39.141Z,47.3437
2023-05-24T12:40:41.354Z,47.5931
2023-05-24T12:41:43.239Z,47.4845
2023-05-24T12:42:45.335Z,47.7935
2023-05-24T12:43:47.314Z,48.1016
2023-05-24T12:44:49.377Z,47.3120
2023-05-24T12:45:53.604Z,47.3890
2023-05-24T12:46:53.539Z,48.0553
2023-05-24T12:47:55.526Z,47.8668
2023-05-24T12:48:57.545Z,48.1157
2023-05-24T12:49:59.732Z,48.2043
2023-05-24T12:51:01.697Z,48.0215
2023-05-24T12:52:03.693Z,48.0085
2023-05-24T12:53:05.745Z,48.0398
2023-05-24T12:54:07.822Z,48.0756
2023-05-24T12:55:09.985Z,47.6632
2023-05-24T12:56:11.949Z,47.7928
2023-05-24T12:57:13.981Z,47.9903
2023-05-24T12:58:15.986Z,47.9401
2023-05-24T12:59:18.062Z,48.1760
2023-05-24T13:00:20.055Z,48.3482
2023-05-24T13:01:22.366Z,48.3343
2023-05-24T13:02:24.176Z,48.0119
2023-05-24T13:03:26.189Z,48.0651
2023-05-24T13:04:28.264Z,47.6874
2023-05-24T13:05:30.403Z,47.7611
2023-05-24T13:06:32.334Z,47.4571
2023-05-24T13:07:34.454Z,47.4699
2023-05-24T13:08:38.116Z,47.5706
2023-05-24T13:09:38.506Z,47.8351
2023-05-24T13:10:40.654Z,47.4370
2023-05-24T13:11:42.592Z,47.4916
2023-05-24T13:12:44.619Z,47.5196
2023-05-24T13:13:47.133Z,47.7740
2023-05-24T13:14:50.679Z,47.9527
2023-05-24T13:15:50.759Z,47.5371
2023-05-24T13:16:53.073Z,47.5707
2023-05-24T13:17:54.998Z,47.0928
2023-05-24T13:18:56.924Z,47.4436
2023-05-24T13:20:01.726Z,46.9248
2023-05-24T13:21:00.993Z,46.6599
2023-05-24T13:22:03.062Z,47.0117
2023-05-24T13:23:05.111Z,46.6978
2023-05-24T13:24:07.102Z,46.6307
2023-05-24T13:25:09.157Z,46.6476
2023-05-24T13:26:11.239Z,46.4942
2023-05-24T13:27:13.289Z,46.6813
2023-05-24T13:28:15.324Z,46.7617
2023-05-24T13:29:34.181Z,46.9352
2023-05-24T13:30:19.418Z,47.0407
2023-05-24T13:31:21.488Z,46.8555
2023-05-24T13:32:23.574Z,46.8546
2023-05-24T13:33:25.530Z,46.5334
2023-05-24T13:34:27.582Z,46.5218
2023-05-24T13:35:29.620Z,46.3567
2023-05-24T13:36:31.672Z,46.1947
2023-05-24T13:37:33.754Z,46.4744
2023-05-24T13:38:35.769Z,46.2936
2023-05-24T13:39:37.835Z,45.9250
2023-05-24T13:40:41.777Z,46.2847
2023-05-24T13:41:42.174Z,46.5752
2023-05-24T13:42:44.017Z,46.7581
2023-05-24T13:43:45.985Z,47.0502
2023-05-24T13:44:48.032Z,46.7464
2023-05-24T13:45:50.070Z,46.4555
2023-05-24T13:46:52.165Z,46.5246
2023-05-24T13:47:54.216Z,46.4389
2023-05-24T13:48:56.247Z,46.8022
2023-05-24T13:49:58.241Z,46.3952
2023-05-24T13:51:00.301Z,46.1941
2023-05-24T13:52:02.389Z,46.2652
2023-05-24T13:53:04.414Z,46.7482
2023-05-24T13:54:06.437Z,46.5787
2023-05-24T13:55:08.530Z,46.4198
2023-05-24T13:56:10.516Z,46.6419
2023-05-24T13:57:12.652Z,46.4343
2023-05-24T13:58:14.602Z,46.7009
2023-05-24T13:59:16.735Z,46.6748
2023-05-24T14:00:18.737Z,46.3902
2023-05-24T14:01:20.932Z,46.1341
2023-05-24T14:02:22.848Z,46.0894
2023-05-24T14:03:24.835Z,45.8072
2023-05-24T14:04:26.884Z,45.6811
2023-05-24T14:05:28.969Z,45.6048
2023-05-24T14:06:30.987Z,45.6117
2023-05-24T14:07:33.087Z,46.0629
2023-05-24T14:08:35.097Z,46.2164
2023-05-24T14:09:37.217Z,46.0083
2023-05-24T14:10:39.220Z,45.8763
2023-05-24T14:11:41.348Z,46.6591
2023-05-24T14:12:43.287Z,46.9194
2023-05-24T14:15:49.520Z,46.3084
2023-05-24T14:16:51.453Z,46.2595
2023-05-24T14:17:53.605Z,46.4926
2023-05-24T14:18:55.553Z,46.8563
2023-05-24T14:19:57.750Z,46.9295
2023-05-24T14:20:59.655Z,46.8004
2023-05-24T14:22:01.731Z,47.0294
2023-05-24T14:23:03.932Z,46.9160
2023-05-24T14:24:05.809Z,46.9217
2023-05-24T14:25:07.825Z,47.0312
2023-05-24T14:26:09.935Z,46.8946
2023-05-24T14:27:11.907Z,47.0752
2023-05-24T14:28:14.016Z,47.1045
2023-05-24T14:29:16.084Z,47.1974
2023-05-24T14:30:18.125Z,47.3974
2023-05-24T14:31:20.139Z,47.5856
2023-05-24T14:32:22.386Z,47.1872
2023-05-24T14:33:24.180Z,47.0702
2023-05-24T14:34:26.280Z,47.0770
2023-05-24T14:35:28.313Z,47.1644
2023-05-24T14:36:30.407Z,47.5615
2023-05-24T14:37:32.457Z,47.0319
2023-05-24T14:38:34.418Z,47.1183
2023-05-24T14:39:36.477Z,47.2585
2023-05-24T14:40:39.051Z,47.5717
2023-05-24T14:41:40.585Z,47.4044
2023-05-24T14:42:42.605Z,47.2454
2023-05-24T14:43:44.663Z,47.4703
2023-05-24T14:44:46.716Z,47.3547
2023-05-24T14:45:49.094Z,47.1245
2023-05-24T14:46:52.007Z,47.3020
2023-05-24T14:47:52.909Z,47.3194
2023-05-24T14:48:54.919Z,48.4200
2023-05-24T14:49:56.923Z,48.0543
2023-05-24T14:50:58.993Z,47.7710
2023-05-24T14:52:01.089Z,47.5999
2023-05-24T14:53:03.093Z,47.4547
2023-05-24T14:54:05.180Z,47.8930
2023-05-24T14:55:07.215Z,47.7189
2023-05-24T14:56:09.314Z,47.7277
2023-05-24T14:57:11.313Z,47.7259
2023-05-24T14:58:13.346Z,47.4970
2023-05-24T14:59:15.369Z,47.4469
2023-05-24T15:00:19.784Z,47.4221
2023-05-24T15:01:19.526Z,47.3334
2023-05-24T15:02:21.673Z,46.8560
2023-05-24T15:03:23.717Z,46.9137
2023-05-24T15:04:25.617Z,46.8966
2023-05-24T15:05:27.660Z,47.1682
2023-05-24T15:06:29.729Z,47.0786
2023-05-24T15:07:31.797Z,47.2169
2023-05-24T15:08:33.873Z,47.7500
2023-05-24T15:09:35.826Z,47.9226
2023-05-24T15:10:37.939Z,47.5269
2023-05-24T15:11:40.035Z,47.3086
2023-05-24T15:12:42.057Z,47.2893
2023-05-24T15:13:44.056Z,47.1157
2023-05-24T15:14:46.089Z,47.4965
2023-05-24T15:15:48.130Z,47.7025
2023-05-24T15:16:50.232Z,48.0012
2023-05-24T15:17:52.290Z,47.6737
2023-05-24T15:18:54.283Z,47.5520
2023-05-24T15:19:56.337Z,47.6994
2023-05-24T15:20:58.422Z,47.4581
2023-05-24T15:22:00.534Z,47.7112
2023-05-24T15:23:02.439Z,48.1888
2023-05-24T15:24:04.517Z,48.4252
2023-05-24T15:25:06.570Z,48.0809
2023-05-24T15:26:08.636Z,48.0586
2023-05-24T15:27:10.741Z,48.4410
2023-05-24T15:28:12.806Z,48.4653
2023-05-24T15:29:14.736Z,48.5584
2023-05-24T15:30:16.827Z,48.7609
2023-05-24T15:31:18.867Z,49.0737
2023-05-24T15:32:20.864Z,49.1935
2023-05-24T15:33:23.005Z,49.1145
2023-05-24T15:34:24.976Z,48.4204
2023-05-24T15:35:27.020Z,48.0623
2023-05-24T15:36:29.087Z,47.9275
2023-05-24T15:37:31.151Z,47.3480
2023-05-24T15:38:33.164Z,47.4916
2023-05-24T15:39:35.204Z,48.0091
2023-05-24T15:40:37.247Z,48.0070
2023-05-24T15:41:39.336Z,47.9810
2023-05-24T15:42:41.469Z,48.0648
2023-05-24T15:43:43.426Z,47.8376
2023-05-24T15:44:45.440Z,47.5677
2023-05-24T15:45:47.493Z,47.5217
2023-05-24T15:46:49.606Z,47.3691
2023-05-24T15:47:51.682Z,47.5242
2023-05-24T15:48:53.657Z,47.4352
2023-05-24T15:49:55.754Z,47.0417
2023-05-24T15:51:25.693Z,47.3838
2023-05-24T15:52:04.329Z,47.2763
2023-05-24T15:53:02.069Z,47.2929
2023-05-24T15:54:03.921Z,47.5568
2023-05-24T15:55:05.944Z,47.7737
2023-05-24T15:56:08.064Z,47.9241
2023-05-24T15:57:10.079Z,48.3701
2023-05-24T15:58:12.155Z,48.2766
2023-05-24T15:59:14.191Z,48.0172
2023-05-24T16:00:16.224Z,48.1374
2023-05-24T16:01:18.339Z,47.7518
2023-05-24T16:02:21.616Z,47.5960
2023-05-24T16:03:22.505Z,47.6126
2023-05-24T16:04:24.395Z,47.5159
2023-05-24T16:05:26.567Z,47.8876
2023-05-24T16:06:28.498Z,47.6797
2023-05-24T16:07:30.523Z,47.5442
2023-05-24T16:08:32.601Z,47.3352
2023-05-24T16:09:34.641Z,47.3663
2023-05-24T16:10:36.663Z,47.2380
2023-05-24T16:11:38.710Z,47.4001
2023-05-24T16:12:40.888Z,47.2579
2023-05-24T16:13:42.825Z,47.2879
2023-05-24T16:14:44.910Z,47.3810
2023-05-24T16:15:47.005Z,47.3768
2023-05-24T16:16:49.078Z,47.1925
2023-05-24T16:17:51.148Z,47.3824
2023-05-24T16:18:53.099Z,47.5858
2023-05-24T16:19:55.311Z,47.6615
2023-05-24T16:20:57.311Z,47.9084
2023-05-24T16:21:59.237Z,48.0910
2023-05-24T16:23:01.266Z,47.4673
2023-05-24T16:24:03.336Z,48.2523
2023-05-24T16:25:05.357Z,47.8201
2023-05-24T16:26:07.406Z,52.0417
2023-05-24T16:27:09.526Z,47.8253
2023-05-24T16:28:11.579Z,47.1450
2023-05-24T16:29:13.579Z,47.1369
2023-05-24T16:30:15.731Z,46.9995
2023-05-24T16:31:17.755Z,46.8113
2023-05-24T16:32:19.827Z,47.3420
2023-05-24T16:33:21.763Z,46.7756
2023-05-24T16:34:23.820Z,46.7082
2023-05-24T16:35:25.915Z,46.6542
2023-05-24T16:36:27.865Z,46.9212
2023-05-24T16:37:29.947Z,46.6692
2023-05-24T16:38:33.220Z,46.6474
2023-05-24T16:39:34.105Z,46.6543
2023-05-24T16:40:36.106Z,46.9708
2023-05-24T16:41:38.378Z,46.7627
2023-05-24T16:42:40.182Z,46.6050
2023-05-24T16:43:42.419Z,46.6183
2023-05-24T16:44:44.572Z,46.5091
2023-05-24T16:45:46.462Z,46.6698
2023-05-24T16:46:48.454Z,46.9597
2023-05-24T16:47:50.544Z,46.6287
2023-05-24T16:48:52.576Z,46.7087
2023-05-24T16:49:54.623Z,46.5290
2023-05-24T16:50:56.752Z,46.6393
2023-05-24T16:51:58.832Z,46.4480
2023-05-24T16:53:00.809Z,46.4331
2023-05-24T16:54:02.793Z,46.9048
2023-05-24T16:55:04.900Z,46.3968
2023-05-24T16:56:07.022Z,46.3970
2023-05-24T16:57:09.243Z,46.7694
2023-05-24T16:58:11.002Z,46.3010
2023-05-24T16:59:13.273Z,47.0330
2023-05-24T17:00:15.106Z,46.1473
2023-05-24T17:01:17.191Z,45.7389
2023-05-24T17:02:19.189Z,46.1362
2023-05-24T17:03:21.330Z,45.7456